createdAt,value
2022-09-14T00:00:06.122Z,99271.47
2022-09-14T00:02:39.128Z,99271.13
2022-09-14T00:05:14.824Z,99268.34
2022-09-14T00:07:50.434Z,99265.56
2022-09-14T00:10:33.412Z,99266.91
2022-09-14T00:13:13.548Z,99259.50
2022-09-14T00:15:49.596Z,99260.34
2022-09-14T00:18:16.585Z,99260.53
2022-09-14T00:20:43.745Z,99254.47
2022-09-14T00:23:19.029Z,99251.28
2022-09-14T00:25:52.292Z,99257.81
2022-09-14T00:28:36.578Z,99251.50
2022-09-14T00:31:09.871Z,99246.88
2022-09-14T00:33:37.603Z,99252.81
2022-09-14T00:36:10.229Z,99248.72
2022-09-14T00:38:44.662Z,99243.53
2022-09-14T00:41:15.213Z,99247.28
2022-09-14T00:43:53.714Z,99250.56
2022-09-14T00:46:33.435Z,99252.69
2022-09-14T00:49:30.146Z,99251.31
2022-09-14T00:52:12.284Z,99253.13
2022-09-14T00:55:02.269Z,99250.91
2022-09-14T00:57:40.357Z,99243.28
2022-09-14T01:00:20.140Z,99243.44
2022-09-14T01:02:58.366Z,99241.47
2022-09-14T01:05:59.308Z,99242.44
2022-09-14T01:08:43.461Z,99243.78
2022-09-14T01:11:22.524Z,99248.88
2022-09-14T01:14:07.716Z,99242.81
2022-09-14T01:16:47.517Z,99241.66
2022-09-14T01:20:03.104Z,99230.72
2022-09-14T01:22:48.729Z,99221.97
2022-09-14T01:25:28.034Z,99218.09
2022-09-14T01:28:03.537Z,99212.34
2022-09-14T01:30:36.368Z,99219.56
2022-09-14T01:33:20.923Z,99219.84
2022-09-14T01:36:03.524Z,99210.53
2022-09-14T01:38:58.669Z,99213.16
2022-09-14T01:41:44.925Z,99218.28
2022-09-14T01:44:18.456Z,99218.59
2022-09-14T01:46:51.703Z,99216.69
2022-09-14T01:49:35.263Z,99218.34
2022-09-14T01:52:30.675Z,99218.00
2022-09-14T01:55:10.109Z,99210.16
2022-09-14T01:57:45.971Z,99204.72
2022-09-14T02:00:16.987Z,99210.16
2022-09-14T02:02:57.280Z,99200.34
2022-09-14T02:05:39.764Z,99201.66
2022-09-14T02:08:09.836Z,99188.97
2022-09-14T02:10:37.637Z,99183.53
2022-09-14T02:13:13.126Z,99174.25
2022-09-14T02:15:46.190Z,99178.59
2022-09-14T02:18:13.195Z,99169.06
2022-09-14T02:20:54.792Z,99169.31
2022-09-14T02:23:30.574Z,99168.16
2022-09-14T02:26:00.814Z,99165.94
2022-09-14T02:28:33.345Z,99160.53
2022-09-14T02:31:41.142Z,99160.44
2022-09-14T02:34:32.347Z,99152.81
2022-09-14T02:37:14.124Z,99151.91
2022-09-14T02:40:02.795Z,99150.50
2022-09-14T02:42:57.118Z,99147.69
2022-09-14T02:45:33.049Z,99137.78
2022-09-14T02:48:32.373Z,99147.31
2022-09-14T02:51:40.740Z,99138.94
2022-09-14T02:54:28.179Z,99137.94
2022-09-14T02:57:16.864Z,99141.38
2022-09-14T02:59:49.518Z,99144.34
2022-09-14T03:02:28.113Z,99150.91
2022-09-14T03:05:03.443Z,99134.00
2022-09-14T03:07:41.253Z,99138.28
2022-09-14T03:10:18.891Z,99141.72
2022-09-14T03:12:54.896Z,99142.53
2022-09-14T03:15:22.076Z,99146.47
2022-09-14T03:17:57.382Z,99148.94
2022-09-14T03:20:38.433Z,99146.81
2022-09-14T03:23:12.237Z,99153.28
2022-09-14T03:25:54.152Z,99149.03
2022-09-14T03:28:32.949Z,99147.84
2022-09-14T03:31:08.671Z,99144.66
2022-09-14T03:33:41.787Z,99139.81
2022-09-14T03:36:19.183Z,99136.06
2022-09-14T03:38:55.666Z,99129.88
2022-09-14T03:41:34.837Z,99123.16
2022-09-14T03:44:15.648Z,99124.91
2022-09-14T03:46:51.786Z,99125.56
2022-09-14T03:49:24.571Z,99118.56
2022-09-14T03:52:00.132Z,99125.63
2022-09-14T03:54:38.032Z,99124.56
2022-09-14T03:57:10.668Z,99131.06
2022-09-14T03:59:43.924Z,99132.19
2022-09-14T04:02:21.699Z,99130.06
2022-09-14T04:04:57.535Z,99137.69
2022-09-14T04:07:30.297Z,99131.22
2022-09-14T04:10:10.850Z,99128.50
2022-09-14T04:15:36.332Z,99129.41
2022-09-14T04:18:14.999Z,99130.72
2022-09-14T04:21:08.001Z,99117.09
2022-09-14T04:24:13.924Z,99108.66
2022-09-14T04:26:51.407Z,99103.47
2022-09-14T04:29:18.405Z,99099.44
2022-09-14T04:31:53.196Z,99102.97
2022-09-14T04:34:28.998Z,99097.03
2022-09-14T04:36:59.054Z,99090.56
2022-09-14T04:39:32.868Z,99091.53
2022-09-14T04:42:11.328Z,99095.25
2022-09-14T04:44:44.447Z,99090.22
2022-09-14T04:47:19.468Z,99092.94
2022-09-14T04:49:46.443Z,99090.50
2022-09-14T04:52:26.697Z,99103.09
2022-09-14T04:55:10.233Z,99100.19
2022-09-14T04:57:45.861Z,99105.31
2022-09-14T05:00:30.586Z,99100.25
2022-09-14T05:03:08.860Z,99097.31
2022-09-14T05:05:47.418Z,99088.94
2022-09-14T05:08:25.098Z,99093.84
2022-09-14T05:11:03.684Z,99106.47
2022-09-14T05:13:38.209Z,99107.84
2022-09-14T05:16:29.191Z,99106.53
2022-09-14T05:19:11.999Z,99117.78
2022-09-14T05:21:39.022Z,99121.66
2022-09-14T05:24:15.287Z,99129.00
2022-09-14T05:26:49.403Z,99125.91
2022-09-14T05:29:27.157Z,99124.59
2022-09-14T05:32:00.339Z,99106.81
2022-09-14T05:34:30.393Z,99115.59
2022-09-14T05:37:08.401Z,99114.06
2022-09-14T05:39:45.396Z,99093.00
2022-09-14T05:42:12.376Z,99080.78
2022-09-14T05:44:53.863Z,99069.97
2022-09-14T05:47:23.606Z,99070.56
2022-09-14T05:49:53.215Z,99080.94
2022-09-14T05:52:42.925Z,99070.41
2022-09-14T05:55:16.700Z,99064.22
2022-09-14T05:57:46.456Z,99072.91
2022-09-14T06:00:20.319Z,99081.97
2022-09-14T06:03:01.155Z,99099.50
2022-09-14T06:05:30.203Z,99098.13
2022-09-14T06:08:12.072Z,99094.06
2022-09-14T06:10:56.795Z,99083.75
2022-09-14T06:13:29.718Z,99090.56
2022-09-14T06:16:04.692Z,99100.66
2022-09-14T06:18:33.805Z,99106.69
2022-09-14T06:21:07.518Z,99102.69
2022-09-14T06:23:44.590Z,99095.91
2022-09-14T06:26:12.324Z,99089.91
2022-09-14T06:28:55.793Z,99074.44
2022-09-14T06:31:28.877Z,99070.13
2022-09-14T06:34:03.959Z,99073.47
2022-09-14T06:36:40.852Z,99072.69
2022-09-14T06:39:10.805Z,99077.88
2022-09-14T06:41:40.470Z,99090.13
2022-09-14T06:44:28.001Z,99092.31
2022-09-14T06:47:06.339Z,99090.69
2022-09-14T06:49:38.907Z,99089.03
2022-09-14T06:52:10.885Z,99089.28
2022-09-14T06:54:40.560Z,99087.66
2022-09-14T06:57:23.316Z,99089.31
2022-09-14T06:59:58.624Z,99092.03
2022-09-14T07:02:34.947Z,99092.03
2022-09-14T07:05:05.121Z,99099.38
2022-09-14T07:07:43.182Z,99115.75
2022-09-14T07:10:11.830Z,99107.84
2022-09-14T07:12:39.275Z,99105.94
2022-09-14T07:15:09.148Z,99095.28
2022-09-14T07:17:40.298Z,99100.47
2022-09-14T07:20:11.534Z,99098.88
2022-09-14T07:22:41.612Z,99102.09
2022-09-14T07:25:14.133Z,99096.13
2022-09-14T07:27:51.805Z,99097.22
2022-09-14T07:30:30.526Z,99107.84
2022-09-14T07:33:11.689Z,99110.03
2022-09-14T07:35:43.129Z,99107.03
2022-09-14T07:38:10.086Z,99104.31
2022-09-14T07:40:57.631Z,99100.50
2022-09-14T07:43:28.293Z,99095.59
2022-09-14T07:45:58.512Z,99090.69
2022-09-14T07:48:28.065Z,99081.66
2022-09-14T07:51:10.429Z,99084.13
2022-09-14T07:53:50.854Z,99080.84
2022-09-14T07:56:26.019Z,99075.94
2022-09-14T07:59:17.136Z,99072.13
2022-09-14T08:02:15.564Z,99068.59
2022-09-14T08:04:49.011Z,99051.41
2022-09-14T08:07:24.923Z,99058.78
2022-09-14T08:09:51.872Z,99069.13
2022-09-14T08:12:21.585Z,99058.78
2022-09-14T08:14:56.411Z,99071.31
2022-09-14T08:17:31.457Z,99072.94
2022-09-14T08:20:06.931Z,99080.28
2022-09-14T08:22:39.531Z,99076.47
2022-09-14T08:28:04.916Z,99060.38
2022-09-14T08:30:44.925Z,99046.47
2022-09-14T08:33:20.058Z,99051.13
2022-09-14T08:35:58.094Z,99054.66
2022-09-14T08:38:32.706Z,99044.03
2022-09-14T08:41:18.817Z,99042.13
2022-09-14T08:43:59.244Z,99040.50
2022-09-14T08:46:43.968Z,99048.09
2022-09-14T08:49:27.774Z,99039.88
2022-09-14T08:52:34.606Z,99040.13
2022-09-14T08:55:24.710Z,99042.53
2022-09-14T08:58:52.609Z,99046.28
2022-09-14T09:01:54.443Z,99046.69
2022-09-14T09:04:37.899Z,99054.66
2022-09-14T09:07:36.974Z,99058.41
2022-09-14T09:10:10.888Z,99061.31
2022-09-14T09:13:11.875Z,99063.28
2022-09-14T09:15:57.411Z,99057.56
2022-09-14T09:18:58.074Z,99053.22
2022-09-14T09:21:50.865Z,99054.28
2022-09-14T09:24:58.315Z,99046.41
2022-09-14T09:27:36.117Z,99055.84
2022-09-14T09:30:27.341Z,99061.34
2022-09-14T09:33:04.821Z,99067.72
2022-09-14T09:36:04.764Z,99081.94
2022-09-14T09:38:42.021Z,99074.59
2022-09-14T09:41:33.420Z,99093.03
2022-09-14T09:44:21.056Z,99106.28
2022-09-14T09:47:09.902Z,99097.63
2022-09-14T09:50:08.391Z,99106.63
2022-09-14T09:52:49.723Z,99102.72
2022-09-14T09:55:40.131Z,99104.41
2022-09-14T09:58:41.063Z,99102.44
2022-09-14T10:01:38.122Z,99104.75
2022-09-14T10:04:33.193Z,99109.41
2022-09-14T10:07:33.564Z,99112.47
2022-09-14T10:13:07.474Z,99113.97
2022-09-14T10:15:52.841Z,99116.59
2022-09-14T10:18:36.506Z,99114.34
2022-09-14T10:21:17.495Z,99112.75
2022-09-14T10:24:06.749Z,99115.81
2022-09-14T10:26:40.574Z,99103.69
2022-09-14T10:29:33.222Z,99096.53
2022-09-14T10:32:17.849Z,99083.53
2022-09-14T10:34:45.125Z,99083.63
2022-09-14T10:37:32.940Z,99081.69
2022-09-14T10:40:23.722Z,99073.50
2022-09-14T10:43:31.706Z,99069.84
2022-09-14T10:46:10.460Z,99079.03
2022-09-14T10:49:03.389Z,99067.41
2022-09-14T10:51:55.718Z,99067.03
2022-09-14T10:54:54.568Z,99061.16
2022-09-14T10:57:56.090Z,99061.59
2022-09-14T11:00:45.362Z,99058.31
2022-09-14T11:03:53.436Z,99063.25
2022-09-14T11:06:42.101Z,99065.91
2022-09-14T11:09:29.012Z,99068.13
2022-09-14T11:12:11.930Z,99063.78
2022-09-14T11:15:03.198Z,99062.41
2022-09-14T11:17:48.611Z,99066.28
2022-09-14T11:20:17.529Z,99055.81
2022-09-14T11:23:18.157Z,99045.53
2022-09-14T11:26:00.706Z,99049.59
2022-09-14T11:28:38.505Z,99047.25
2022-09-14T11:32:16.909Z,99045.16
2022-09-14T11:34:57.157Z,99042.25
2022-09-14T11:37:44.953Z,99034.22
2022-09-14T11:40:25.481Z,99034.91
2022-09-14T11:43:03.482Z,99028.31
2022-09-14T11:45:44.529Z,99027.00
2022-09-14T11:48:46.466Z,99022.78
2022-09-14T11:51:23.350Z,99036.03
2022-09-14T11:53:58.901Z,99038.88
2022-09-14T11:56:34.091Z,99039.97
2022-09-14T11:59:32.987Z,99033.75
2022-09-14T12:02:25.193Z,99026.09
2022-09-14T12:05:16.426Z,99020.66
2022-09-14T12:07:43.690Z,99015.69
2022-09-14T12:10:19.530Z,99022.16
2022-09-14T12:12:58.234Z,99019.69
2022-09-14T12:15:27.839Z,99020.31
2022-09-14T12:18:21.337Z,99013.28
2022-09-14T12:21:08.252Z,99013.09
2022-09-14T12:23:48.336Z,99010.59
2022-09-14T12:26:29.458Z,99015.28
2022-09-14T12:29:19.872Z,99004.91
2022-09-14T12:31:51.655Z,98999.16
2022-09-14T12:34:34.837Z,98996.91
2022-09-14T12:37:35.371Z,98992.41
2022-09-14T12:40:38.666Z,98987.91
2022-09-14T12:43:36.557Z,98982.31
2022-09-14T12:46:24.704Z,98977.13
2022-09-14T12:48:59.033Z,98974.56
2022-09-14T12:51:47.087Z,98977.94
2022-09-14T12:54:51.523Z,98962.22
2022-09-14T12:57:48.647Z,98958.13
2022-09-14T13:00:31.761Z,98965.44
2022-09-14T13:03:20.470Z,98966.75
2022-09-14T13:06:07.043Z,98957.78
2022-09-14T13:11:26.777Z,98939.25
2022-09-14T13:14:03.806Z,98940.94
2022-09-14T13:16:48.141Z,98937.97
2022-09-14T13:19:27.629Z,98942.66
2022-09-14T13:22:01.505Z,98947.47
2022-09-14T13:24:55.361Z,98950.41
2022-09-14T13:27:33.304Z,98945.16
2022-09-14T13:30:22.931Z,98940.06
2022-09-14T13:33:11.162Z,98943.53
2022-09-14T13:35:52.682Z,98952.00
2022-09-14T13:38:41.095Z,98943.53
2022-09-14T13:41:35.022Z,98961.09
2022-09-14T13:44:22.496Z,98956.88
2022-09-14T13:46:52.736Z,98955.03
2022-09-14T13:49:28.244Z,98945.88
2022-09-14T13:52:25.903Z,98949.84
2022-09-14T13:55:28.963Z,98954.75
2022-09-14T13:58:10.801Z,98947.81
2022-09-14T14:01:00.933Z,98943.00
2022-09-14T14:03:55.380Z,98944.81
2022-09-14T14:06:35.579Z,98936.06
2022-09-14T14:09:09.832Z,98923.44
2022-09-14T14:11:54.988Z,98924.72
2022-09-14T14:14:31.166Z,98911.94
2022-09-14T14:17:34.914Z,98902.72
2022-09-14T14:20:35.692Z,98901.41
2022-09-14T14:23:11.813Z,98891.66
2022-09-14T14:26:10.495Z,98883.81
2022-09-14T14:28:37.725Z,98886.56
2022-09-14T14:31:32.934Z,98886.81
2022-09-14T14:34:26.220Z,98869.47
2022-09-14T14:36:56.920Z,98856.06
2022-09-14T14:39:27.069Z,98856.06
2022-09-14T14:42:05.736Z,98848.75
2022-09-14T14:44:44.819Z,98848.47
2022-09-14T14:47:16.802Z,98856.13
2022-09-14T14:49:56.881Z,98852.88
2022-09-14T14:52:33.535Z,98856.16
2022-09-14T14:55:18.356Z,98855.56
2022-09-14T14:58:01.082Z,98876.78
2022-09-14T15:00:36.300Z,98881.22
2022-09-14T15:03:18.834Z,98871.88
2022-09-14T15:05:53.200Z,98860.06
2022-09-14T15:08:20.227Z,98860.44
2022-09-14T15:10:59.990Z,98842.91
2022-09-14T15:13:43.286Z,98847.94
2022-09-14T15:16:13.318Z,98846.47
2022-09-14T15:18:44.203Z,98841.72
2022-09-14T15:21:34.143Z,98839.53
2022-09-14T15:24:29.044Z,98832.53
2022-09-14T15:27:02.163Z,98828.31
2022-09-14T15:29:35.197Z,98827.19
2022-09-14T15:32:08.453Z,98828.28
2022-09-14T15:34:42.604Z,98825.75
2022-09-14T15:37:13.285Z,98827.31
2022-09-14T15:39:50.327Z,98819.91
2022-09-14T15:42:27.369Z,98826.50
2022-09-14T15:45:09.010Z,98821.19
2022-09-14T15:47:36.825Z,98810.16
2022-09-14T15:50:13.500Z,98808.63
2022-09-14T15:52:51.082Z,98807.88
2022-09-14T15:55:24.283Z,98790.25
2022-09-14T15:57:52.426Z,98794.94
2022-09-14T16:00:24.945Z,98802.25
2022-09-14T16:02:58.590Z,98793.47
2022-09-14T16:05:34.323Z,98803.94
2022-09-14T16:08:07.550Z,98810.50
2022-09-14T16:10:43.009Z,98806.69
2022-09-14T16:13:13.161Z,98806.91
2022-09-14T16:15:42.519Z,98811.94
2022-09-14T16:18:14.242Z,98814.66
2022-09-14T16:20:44.061Z,98808.78
2022-09-14T16:23:11.395Z,98824.75
2022-09-14T16:25:43.121Z,98834.09
2022-09-14T16:28:17.703Z,98822.34
2022-09-14T16:30:48.354Z,98825.88
2022-09-14T16:33:20.542Z,98837.44
2022-09-14T16:35:53.417Z,98824.88
2022-09-14T16:38:30.315Z,98829.44
2022-09-14T16:41:10.181Z,98825.56
2022-09-14T16:43:40.505Z,98820.81
2022-09-14T16:46:13.321Z,98815.16
2022-09-14T16:48:47.330Z,98817.38
2022-09-14T16:51:30.999Z,98812.22
2022-09-14T16:54:03.671Z,98829.13
2022-09-14T16:56:42.555Z,98828.25
2022-09-14T16:59:10.731Z,98814.94
2022-09-14T17:01:43.929Z,98814.81
2022-09-14T17:04:22.265Z,98816.56
2022-09-14T17:06:52.223Z,98804.69
2022-09-14T17:09:33.404Z,98801.75
2022-09-14T17:12:00.794Z,98807.53
2022-09-14T17:14:34.141Z,98795.63
2022-09-14T17:17:04.852Z,98790.19
2022-09-14T17:19:38.549Z,98784.31
2022-09-14T17:22:14.169Z,98779.13
2022-09-14T17:24:49.512Z,98775.91
2022-09-14T17:27:25.923Z,98785.97
2022-09-14T17:29:55.953Z,98788.00
2022-09-14T17:32:38.213Z,98792.13
2022-09-14T17:35:05.824Z,98782.84
2022-09-14T17:37:41.129Z,98785.78
2022-09-14T17:40:15.292Z,98789.72
2022-09-14T17:42:46.776Z,98777.97
2022-09-14T17:45:22.657Z,98775.84
2022-09-14T17:47:53.416Z,98766.38
2022-09-14T17:50:21.558Z,98762.44
2022-09-14T17:52:54.031Z,98762.16
2022-09-14T17:55:21.207Z,98770.06
2022-09-14T17:57:51.068Z,98760.25
2022-09-14T18:03:09.177Z,98751.91
2022-09-14T18:05:46.782Z,98749.66
2022-09-14T18:08:16.795Z,98734.97
2022-09-14T18:10:54.403Z,98732.31
2022-09-14T18:13:24.467Z,98726.38
2022-09-14T18:15:58.624Z,98715.22
2022-09-14T18:18:38.226Z,98727.78
2022-09-14T18:21:12.132Z,98740.50
2022-09-14T18:23:53.520Z,98744.34
2022-09-14T18:26:30.947Z,98756.44
2022-09-14T18:29:08.041Z,98751.97
2022-09-14T18:31:41.501Z,98738.34
2022-09-14T18:34:08.529Z,98738.44
2022-09-14T18:36:46.811Z,98742.91
2022-09-14T18:39:17.628Z,98752.25
2022-09-14T18:41:51.895Z,98746.28
2022-09-14T18:44:23.405Z,98746.41
2022-09-14T18:47:00.071Z,98737.72
2022-09-14T18:49:35.232Z,98715.94
2022-09-14T18:52:03.069Z,98713.78
2022-09-14T18:54:39.698Z,98722.66
2022-09-14T18:57:09.778Z,98721.00
2022-09-14T18:59:49.557Z,98721.75
2022-09-14T19:02:26.462Z,98723.72
2022-09-14T19:04:54.205Z,98729.53
2022-09-14T19:07:28.579Z,98733.75
2022-09-14T19:09:58.667Z,98740.91
2022-09-14T19:12:34.630Z,98744.44
2022-09-14T19:15:11.727Z,98746.97
2022-09-14T19:17:42.252Z,98756.75
2022-09-14T19:20:15.737Z,98756.75
2022-09-14T19:22:48.439Z,98757.88
2022-09-14T19:25:21.126Z,98749.97
2022-09-14T19:27:52.186Z,98740.44
2022-09-14T19:30:20.573Z,98744.28
2022-09-14T19:32:50.485Z,98744.28
2022-09-14T19:35:20.911Z,98741.00
2022-09-14T19:37:57.872Z,98739.63
2022-09-14T19:40:25.895Z,98724.63
2022-09-14T19:42:57.307Z,98722.19
2022-09-14T19:45:31.735Z,98723.00
2022-09-14T19:48:07.205Z,98729.28
2022-09-14T19:50:39.753Z,98723.47
2022-09-14T19:53:18.888Z,98721.53
2022-09-14T19:55:53.260Z,98710.94
2022-09-14T19:58:24.555Z,98710.13
2022-09-14T20:01:01.465Z,98713.94
2022-09-14T20:03:33.445Z,98718.31
2022-09-14T20:06:14.039Z,98713.72
2022-09-14T20:08:43.915Z,98709.16
2022-09-14T20:11:20.258Z,98709.75
2022-09-14T20:13:55.643Z,98712.00
2022-09-14T20:16:35.847Z,98715.88
2022-09-14T20:19:28.215Z,98719.44
2022-09-14T20:22:03.760Z,98712.06
2022-09-14T20:24:34.735Z,98708.03
2022-09-14T20:27:10.250Z,98690.38
2022-09-14T20:29:40.930Z,98684.38
2022-09-14T20:32:19.630Z,98682.19
2022-09-14T20:34:47.279Z,98675.88
2022-09-14T20:37:39.147Z,98685.63
2022-09-14T20:40:18.913Z,98682.28
2022-09-14T20:42:48.935Z,98683.94
2022-09-14T20:45:19.734Z,98696.41
2022-09-14T20:47:52.324Z,98684.13
2022-09-14T20:50:22.286Z,98671.84
2022-09-14T20:52:49.262Z,98673.09
2022-09-14T20:55:17.891Z,98681.97
2022-09-14T20:58:06.722Z,98689.41
2022-09-14T21:00:39.287Z,98681.97
2022-09-14T21:03:06.409Z,98678.50
2022-09-14T21:05:41.430Z,98678.16
2022-09-14T21:08:16.932Z,98684.75
2022-09-14T21:10:47.069Z,98689.94
2022-09-14T21:13:32.163Z,98694.59
2022-09-14T21:16:02.812Z,98692.41
2022-09-14T21:18:37.639Z,98690.16
2022-09-14T21:21:16.115Z,98688.50
2022-09-14T21:23:49.197Z,98698.31
2022-09-14T21:26:20.711Z,98697.22
2022-09-14T21:28:48.360Z,98702.31
2022-09-14T21:31:22.817Z,98686.19
2022-09-14T21:34:06.605Z,98689.44
2022-09-14T21:36:43.404Z,98696.34
2022-09-14T21:39:24.795Z,98681.63
2022-09-14T21:42:08.039Z,98683.22
2022-09-14T21:44:42.345Z,98690.28
2022-09-14T21:47:12.251Z,98683.75
2022-09-14T21:49:40.001Z,98686.53
2022-09-14T21:52:15.746Z,98674.75
2022-09-14T21:54:45.861Z,98674.28
2022-09-14T22:00:08.958Z,98676.09
2022-09-14T22:02:44.799Z,98680.69
2022-09-14T22:05:12.929Z,98685.34
2022-09-14T22:07:49.138Z,98681.06
2022-09-14T22:10:21.914Z,98688.72
2022-09-14T22:13:08.231Z,98677.81
2022-09-14T22:15:35.297Z,98678.63
2022-09-14T22:18:08.036Z,98678.63
2022-09-14T22:20:37.974Z,98677.22
2022-09-14T22:23:08.032Z,98678.03
2022-09-14T22:25:43.017Z,98672.81
2022-09-14T22:28:10.389Z,98676.63
2022-09-14T22:30:57.740Z,98671.16
2022-09-14T22:33:29.616Z,98679.22
2022-09-14T22:36:06.628Z,98673.19
2022-09-14T22:38:35.177Z,98668.09
2022-09-14T22:41:10.542Z,98655.81
2022-09-14T22:43:41.750Z,98657.75
2022-09-14T22:46:17.898Z,98656.03
2022-09-14T22:48:55.034Z,98658.41
2022-09-14T22:51:29.129Z,98663.22
2022-09-14T22:54:02.662Z,98663.88
2022-09-14T22:56:39.458Z,98681.81
2022-09-14T22:59:09.514Z,98687.16
2022-09-14T23:01:42.619Z,98697.88
2022-09-14T23:04:15.612Z,98706.00
2022-09-14T23:06:47.935Z,98711.41
2022-09-14T23:09:23.999Z,98705.13
2022-09-14T23:12:05.895Z,98710.13
2022-09-14T23:14:38.349Z,98708.13
2022-09-14T23:17:16.192Z,98710.59
2022-09-14T23:20:10.721Z,98707.56
2022-09-14T23:22:38.380Z,98695.00
2022-09-14T23:25:15.757Z,98697.22
2022-09-14T23:27:46.128Z,98698.59
2022-09-14T23:30:18.764Z,98687.63
2022-09-14T23:32:52.727Z,98689.94
2022-09-14T23:35:20.424Z,98676.88
2022-09-14T23:37:53.206Z,98669.78
2022-09-14T23:40:38.213Z,98659.47
2022-09-14T23:43:11.915Z,98644.97
2022-09-14T23:45:45.620Z,98639.81
2022-09-14T23:48:16.317Z,98639.28
2022-09-14T23:50:50.085Z,98628.38
2022-09-14T23:53:20.612Z,98622.91
2022-09-14T23:55:50.242Z,98612.84
2022-09-14T23:58:42.063Z,98600.00
